• Join FlightAware (Why Join?)
  • Login
  • US Flag 
12:19PM EDT


 

Airport Tracker/Info


-or-


 

Live Flight TrackerFlight Track Log ✈ N349MC ✈ 25-Oct-2013 ✈ KTME - KHOU

Flight Track Log - Related Links

Times and Time Zones

All times are in EDT time to prevent confusion due to time zone crossing. See the N349MC flight status page for this flight to view local times or setup timezone preferences in your user account.

Time Position Orientation Groundspeed Altitude Reporting Facility
EDT Latitude Longitude Course Direction KTS MPH feet Rate Location/Type
06:12PM 29.7383 -95.8972 146° Southeast 219 252 2,100  Level Houston Center
06:14PM 29.6781 -95.8508 146° Southeast 246 283 2,600 480 Climbing Houston Center
06:14PM 29.6775 -95.8492 111° Southeast 255 293 2,700 360 Climbing Houston Center
06:15PM 29.6339 -95.7819 127° Southeast 255 293 3,000 120 Climbing Houston Center
06:16PM 29.5961 -95.7119 122° Southeast 253 291 3,000  Level Houston Center
06:16PM 29.5969 -95.7183 279° West 253 291 3,000  Level Houston Center
06:17PM 29.6325 -95.6556 57° Northeast 250 288 3,000  Level Houston Center
06:17PM 29.6428 -95.6464 38° Northeast 250 288 3,000  Level Houston Center
06:18PM 29.6911 -95.5997 40° Northeast 246 283 3,000  Level Houston Center
06:18PM 29.6861 -95.6050 223° Southwest 250 288 3,000  Level Houston Center
06:19PM 29.6989 -95.5244 80° East 235 270 3,000  Level Houston Center
06:19PM 29.6994 -95.5336 274° West 245 282 3,000 -120 Level Houston Center
06:20PM 29.7278 -95.4514 68° East 243 280 2,900 -480 Descending Houston Center
06:21PM 29.7442 -95.3986 70° East 160 184 2,100 -780 Descending Houston Center
06:21PM 29.7442 -95.3975 90° East 204 235 2,100 -300 Level Houston Center
06:22PM 29.7161 -95.3658 136° Southeast 122 140 1,800 -300 Descending Houston Center
06:22PM 29.7167 -95.3664 319° Northwest 157 181 1,800 -420 Level Houston Center
06:23PM 29.6925 -95.3375 134° Southeast 125 144 1,400 -540 Descending Houston Center
06:23PM 29.6925 -95.3364 90° East 135 155 1,300 -900 Descending Houston Center
06:24PM 29.6661 -95.3047 134° Southeast 124 143 500 -720 Descending Houston Center
06:24PM 29.6683 -95.3064 327° Northwest 129 148 600 -360 Climbing Houston Center
06:25PM 29.6428 -95.2750 133° Southeast 127 146 100 -540 Descending Houston Center
06:27PM 29.6454 -95.2789 North  Level Estimated